sensor_id;sensor_type;location;lat;lon;timestamp;temperature;humidity
2387;DHT22;49473;50.772;8.768;2022-12-18T00:02:05;-7.10;99.90
2387;DHT22;49473;50.772;8.768;2022-12-18T00:04:32;-7.10;99.90
2387;DHT22;49473;50.772;8.768;2022-12-18T00:07:00;-7.20;99.90
2387;DHT22;49473;50.772;8.768;2022-12-18T00:09:27;-7.20;99.90
2387;DHT22;49473;50.772;8.768;2022-12-18T00:11:53;-7.20;99.90
2387;DHT22;49473;50.772;8.768;2022-12-18T00:14:20;-7.10;99.90
2387;DHT22;49473;50.772;8.768;2022-12-18T00:16:47;-6.90;99.90
2387;DHT22;49473;50.772;8.768;2022-12-18T00:19:15;-7.00;99.90
2387;DHT22;49473;50.772;8.768;2022-12-18T00:21:43;-7.20;99.90
2387;DHT22;49473;50.772;8.768;2022-12-18T00:24:11;-7.30;99.90
2387;DHT22;49473;50.772;8.768;2022-12-18T00:26:39;-7.40;99.90
2387;DHT22;49473;50.772;8.768;2022-12-18T00:29:08;-7.40;99.90
2387;DHT22;49473;50.772;8.768;2022-12-18T00:31:37;-7.50;99.90
2387;DHT22;49473;50.772;8.768;2022-12-18T00:34:04;-7.50;99.90
2387;DHT22;49473;50.772;8.768;2022-12-18T00:36:33;-7.40;99.90
2387;DHT22;49473;50.772;8.768;2022-12-18T00:39:03;-7.40;99.90
2387;DHT22;49473;50.772;8.768;2022-12-18T00:41:31;-7.30;99.90
2387;DHT22;49473;50.772;8.768;2022-12-18T00:44:17;-7.30;99.90
2387;DHT22;49473;50.772;8.768;2022-12-18T00:46:45;-7.30;99.90
2387;DHT22;49473;50.772;8.768;2022-12-18T00:49:12;-7.20;99.90
2387;DHT22;49473;50.772;8.768;2022-12-18T00:51:39;-7.10;99.90
2387;DHT22;49473;50.772;8.768;2022-12-18T00:54:06;-7.00;99.90
2387;DHT22;49473;50.772;8.768;2022-12-18T00:56:35;-7.10;99.90
2387;DHT22;49473;50.772;8.768;2022-12-18T00:59:02;-7.30;99.90
2387;DHT22;49473;50.772;8.768;2022-12-18T01:01:29;-7.50;99.90
2387;DHT22;49473;50.772;8.768;2022-12-18T01:03:56;-7.60;99.90
2387;DHT22;49473;50.772;8.768;2022-12-18T01:06:22;-7.70;99.90
2387;DHT22;49473;50.772;8.768;2022-12-18T01:08:49;-7.90;99.90
2387;DHT22;49473;50.772;8.768;2022-12-18T01:11:18;-8.10;99.90
2387;DHT22;49473;50.772;8.768;2022-12-18T01:13:47;-8.30;99.90
2387;DHT22;49473;50.772;8.768;2022-12-18T01:16:15;-8.20;99.90
2387;DHT22;49473;50.772;8.768;2022-12-18T01:18:42;-8.20;99.90
2387;DHT22;49473;50.772;8.768;2022-12-18T01:21:11;-8.20;99.90
2387;DHT22;49473;50.772;8.768;2022-12-18T01:23:38;-8.20;99.90
2387;DHT22;49473;50.772;8.768;2022-12-18T01:26:06;-8.20;99.90
2387;DHT22;49473;50.772;8.768;2022-12-18T01:28:32;-8.20;99.90
2387;DHT22;49473;50.772;8.768;2022-12-18T01:31:11;-8.20;99.90
2387;DHT22;49473;50.772;8.768;2022-12-18T01:33:38;-8.40;99.90
2387;DHT22;49473;50.772;8.768;2022-12-18T01:36:05;-8.50;99.90
2387;DHT22;49473;50.772;8.768;2022-12-18T01:38:32;-8.70;99.90
2387;DHT22;49473;50.772;8.768;2022-12-18T01:40:58;-8.70;99.90
2387;DHT22;49473;50.772;8.768;2022-12-18T01:43:41;-8.60;99.90
2387;DHT22;49473;50.772;8.768;2022-12-18T01:46:09;-8.60;99.90
2387;DHT22;49473;50.772;8.768;2022-12-18T01:48:37;-8.50;99.90
2387;DHT22;49473;50.772;8.768;2022-12-18T01:51:06;-8.60;99.90
2387;DHT22;49473;50.772;8.768;2022-12-18T01:53:34;-8.80;99.90
2387;DHT22;49473;50.772;8.768;2022-12-18T01:56:02;-8.90;99.90
2387;DHT22;49473;50.772;8.768;2022-12-18T01:58:39;-9.00;99.90
2387;DHT22;49473;50.772;8.768;2022-12-18T02:01:06;-9.00;99.90
2387;DHT22;49473;50.772;8.768;2022-12-18T02:03:34;-8.90;99.90
2387;DHT22;49473;50.772;8.768;2022-12-18T02:06:06;-8.80;99.90
2387;DHT22;49473;50.772;8.768;2022-12-18T02:08:43;-8.60;99.90
2387;DHT22;49473;50.772;8.768;2022-12-18T02:11:17;-8.60;99.90
2387;DHT22;49473;50.772;8.768;2022-12-18T02:13:50;-8.50;99.90
2387;DHT22;49473;50.772;8.768;2022-12-18T02:16:23;-8.50;99.90
2387;DHT22;49473;50.772;8.768;2022-12-18T02:18:57;-8.70;99.90
2387;DHT22;49473;50.772;8.768;2022-12-18T02:21:30;-8.80;99.90
2387;DHT22;49473;50.772;8.768;2022-12-18T02:24:11;-8.80;99.90
2387;DHT22;49473;50.772;8.768;2022-12-18T02:26:46;-8.90;99.90
2387;DHT22;49473;50.772;8.768;2022-12-18T02:29:15;-9.00;99.90
2387;DHT22;49473;50.772;8.768;2022-12-18T02:36:41;-8.90;99.90
2387;DHT22;49473;50.772;8.768;2022-12-18T02:39:11;-9.00;99.90
2387;DHT22;49473;50.772;8.768;2022-12-18T02:41:39;-9.10;99.90
2387;DHT22;49473;50.772;8.768;2022-12-18T02:44:09;-9.10;99.90
2387;DHT22;49473;50.772;8.768;2022-12-18T02:46:38;-9.10;99.90
2387;DHT22;49473;50.772;8.768;2022-12-18T02:49:13;-9.10;99.90
2387;DHT22;49473;50.772;8.768;2022-12-18T02:51:52;-9.10;99.90
2387;DHT22;49473;50.772;8.768;2022-12-18T02:54:27;-9.20;99.90
2387;DHT22;49473;50.772;8.768;2022-12-18T02:57:05;-9.30;99.90
2387;DHT22;49473;50.772;8.768;2022-12-18T02:59:41;-9.40;99.90
2387;DHT22;49473;50.772;8.768;2022-12-18T03:02:17;-9.40;99.90
2387;DHT22;49473;50.772;8.768;2022-12-18T03:27:18;-9.60;99.90
2387;DHT22;49473;50.772;8.768;2022-12-18T03:29:48;-9.70;99.90
2387;DHT22;49473;50.772;8.768;2022-12-18T03:32:23;-9.80;99.90
2387;DHT22;49473;50.772;8.768;2022-12-18T03:34:53;-9.90;99.90
2387;DHT22;49473;50.772;8.768;2022-12-18T03:47:25;-9.90;99.90
2387;DHT22;49473;50.772;8.768;2022-12-18T03:49:56;-10.00;99.90
2387;DHT22;49473;50.772;8.768;2022-12-18T03:52:27;-10.10;99.90
2387;DHT22;49473;50.772;8.768;2022-12-18T03:54:56;-10.10;99.90
2387;DHT22;49473;50.772;8.768;2022-12-18T03:57:27;-10.10;99.90
2387;DHT22;49473;50.772;8.768;2022-12-18T03:59:56;-10.10;99.90
2387;DHT22;49473;50.772;8.768;2022-12-18T04:02:25;-10.30;99.90
2387;DHT22;49473;50.772;8.768;2022-12-18T04:04:53;-10.20;99.90
2387;DHT22;49473;50.772;8.768;2022-12-18T04:07:22;-10.20;99.90
2387;DHT22;49473;50.772;8.768;2022-12-18T04:09:51;-10.10;99.90
2387;DHT22;49473;50.772;8.768;2022-12-18T04:12:19;-10.10;99.90
2387;DHT22;49473;50.772;8.768;2022-12-18T04:14:46;-10.20;99.90
2387;DHT22;49473;50.772;8.768;2022-12-18T04:17:13;-10.20;99.90
2387;DHT22;49473;50.772;8.768;2022-12-18T04:19:41;-10.20;99.90
2387;DHT22;49473;50.772;8.768;2022-12-18T04:22:09;-10.20;99.90
2387;DHT22;49473;50.772;8.768;2022-12-18T04:24:36;-10.10;99.90
2387;DHT22;49473;50.772;8.768;2022-12-18T04:27:03;-10.20;99.90
2387;DHT22;49473;50.772;8.768;2022-12-18T04:29:30;-10.30;99.90
2387;DHT22;49473;50.772;8.768;2022-12-18T04:31:57;-10.10;99.90
2387;DHT22;49473;50.772;8.768;2022-12-18T04:34:24;-10.30;99.90
2387;DHT22;49473;50.772;8.768;2022-12-18T04:36:52;-10.30;99.90
2387;DHT22;49473;50.772;8.768;2022-12-18T04:39:18;-10.40;99.90
2387;DHT22;49473;50.772;8.768;2022-12-18T04:41:46;-10.40;99.90
2387;DHT22;49473;50.772;8.768;2022-12-18T04:44:13;-10.40;99.90
2387;DHT22;49473;50.772;8.768;2022-12-18T04:46:40;-10.40;99.90
2387;DHT22;49473;50.772;8.768;2022-12-18T04:49:07;-10.40;99.90
2387;DHT22;49473;50.772;8.768;2022-12-18T04:51:35;-10.30;99.90
2387;DHT22;49473;50.772;8.768;2022-12-18T04:54:04;-10.30;99.90
2387;DHT22;49473;50.772;8.768;2022-12-18T04:56:31;-10.20;99.90
2387;DHT22;49473;50.772;8.768;2022-12-18T04:58:58;-10.30;99.90
2387;DHT22;49473;50.772;8.768;2022-12-18T05:01:25;-10.40;99.90
2387;DHT22;49473;50.772;8.768;2022-12-18T05:03:52;-10.50;99.90
2387;DHT22;49473;50.772;8.768;2022-12-18T05:06:18;-10.40;99.90
2387;DHT22;49473;50.772;8.768;2022-12-18T05:08:45;-10.30;99.90
2387;DHT22;49473;50.772;8.768;2022-12-18T05:11:14;-10.40;99.90
2387;DHT22;49473;50.772;8.768;2022-12-18T05:13:42;-10.50;99.90
2387;DHT22;49473;50.772;8.768;2022-12-18T05:16:09;-10.50;99.90
2387;DHT22;49473;50.772;8.768;2022-12-18T05:18:37;-10.40;99.90
2387;DHT22;49473;50.772;8.768;2022-12-18T05:21:04;-10.60;99.90
2387;DHT22;49473;50.772;8.768;2022-12-18T05:23:31;-10.50;99.90
2387;DHT22;49473;50.772;8.768;2022-12-18T05:26:02;-10.50;99.90
2387;DHT22;49473;50.772;8.768;2022-12-18T05:28:32;-10.60;99.90
2387;DHT22;49473;50.772;8.768;2022-12-18T05:31:01;-10.60;99.90
2387;DHT22;49473;50.772;8.768;2022-12-18T05:33:30;-10.70;99.90
2387;DHT22;49473;50.772;8.768;2022-12-18T05:35:58;-10.70;99.90
2387;DHT22;49473;50.772;8.768;2022-12-18T05:38:26;-10.70;99.90
2387;DHT22;49473;50.772;8.768;2022-12-18T05:40:54;-10.70;99.90
2387;DHT22;49473;50.772;8.768;2022-12-18T05:43:22;-10.70;99.90
2387;DHT22;49473;50.772;8.768;2022-12-18T05:45:51;-10.70;99.90
2387;DHT22;49473;50.772;8.768;2022-12-18T05:48:18;-10.80;99.90
2387;DHT22;49473;50.772;8.768;2022-12-18T05:50:46;-10.80;99.90
2387;DHT22;49473;50.772;8.768;2022-12-18T05:53:15;-10.80;99.90
2387;DHT22;49473;50.772;8.768;2022-12-18T12:05:54;2.80;99.90
2387;DHT22;49473;50.772;8.768;2022-12-18T12:08:34;2.80;99.90
2387;DHT22;49473;50.772;8.768;2022-12-18T12:13:43;2.00;99.90
2387;DHT22;49473;50.772;8.768;2022-12-18T12:34:14;0.70;99.90
2387;DHT22;49473;50.772;8.768;2022-12-18T12:36:53;0.60;99.90
2387;DHT22;49473;50.772;8.768;2022-12-18T12:49:40;0.20;99.90
2387;DHT22;49473;50.772;8.768;2022-12-18T13:04:47;-0.60;99.90
